createdAt,value
2018-11-06T00:02:03.056Z,100770.89
2018-11-06T00:04:37.141Z,100776.66
2018-11-06T00:07:05.222Z,100772.26
2018-11-06T00:09:33.268Z,100772.53
2018-11-06T00:12:01.320Z,100776.02
2018-11-06T00:14:29.294Z,100773.90
2018-11-06T00:16:57.276Z,100779.73
2018-11-06T00:19:25.273Z,100774.47
2018-11-06T00:21:53.211Z,100770.14
2018-11-06T00:24:21.185Z,100761.72
2018-11-06T00:26:49.244Z,100756.91
2018-11-06T00:29:17.203Z,100753.36
2018-11-06T00:31:45.308Z,100755.36
2018-11-06T00:34:14.178Z,100749.11
2018-11-06T00:36:42.150Z,100743.77
2018-11-06T00:39:10.483Z,100745.54
2018-11-06T00:41:38.612Z,100739.89
2018-11-06T00:44:06.637Z,100745.31
2018-11-06T00:46:34.609Z,100743.16
2018-11-06T00:49:02.583Z,100735.51
2018-11-06T00:51:30.552Z,100735.26
2018-11-06T00:53:58.509Z,100736.25
2018-11-06T00:56:26.489Z,100735.31
2018-11-06T00:58:54.423Z,100734.50
2018-11-06T01:01:22.411Z,100732.68
2018-11-06T01:04:22.273Z,100731.84
2018-11-06T01:06:50.298Z,100730.96
2018-11-06T01:09:18.287Z,100723.59
2018-11-06T01:11:46.293Z,100716.62
2018-11-06T01:14:14.249Z,100720.12
2018-11-06T01:16:42.285Z,100724.10
2018-11-06T01:19:10.676Z,100719.06
2018-11-06T01:21:38.683Z,100723.75
2018-11-06T01:24:07.449Z,100717.74
2018-11-06T01:26:35.395Z,100716.50
2018-11-06T01:29:03.468Z,100717.31
2018-11-06T01:31:31.502Z,100728.20
2018-11-06T01:33:59.429Z,100731.89
2018-11-06T01:36:27.383Z,100732.16
2018-11-06T01:38:55.349Z,100723.02
2018-11-06T01:41:23.457Z,100723.06
2018-11-06T01:43:51.408Z,100719.95
2018-11-06T01:46:22.540Z,100718.63
2018-11-06T01:48:50.504Z,100719.49
2018-11-06T01:51:18.517Z,100714.22
2018-11-06T01:53:46.653Z,100709.10
2018-11-06T01:56:14.666Z,100711.81
2018-11-06T01:58:42.689Z,100708.16
2018-11-06T02:01:10.640Z,100710.42
2018-11-06T02:03:38.683Z,100724.34
2018-11-06T02:06:06.906Z,100720.39
2018-11-06T02:08:34.960Z,100708.25
2018-11-06T02:11:03.048Z,100702.13
2018-11-06T02:13:31.109Z,100699.12
2018-11-06T02:15:59.133Z,100699.86
2018-11-06T02:18:27.119Z,100694.68
2018-11-06T02:20:55.129Z,100688.91
2018-11-06T02:23:23.239Z,100685.23
2018-11-06T02:25:51.250Z,100689.70
2018-11-06T02:28:19.221Z,100689.19
2018-11-06T02:30:47.226Z,100697.00
2018-11-06T02:33:15.300Z,100701.12
2018-11-06T02:35:43.321Z,100684.94
2018-11-06T02:38:11.434Z,100688.39
2018-11-06T02:40:39.539Z,100688.98
2018-11-06T02:43:07.536Z,100681.02
2018-11-06T02:45:35.538Z,100689.28
2018-11-06T02:48:03.557Z,100691.57
2018-11-06T02:50:31.576Z,100688.00
2018-11-06T02:52:59.556Z,100690.42
2018-11-06T02:55:27.552Z,100696.62
2018-11-06T02:57:55.555Z,100695.00
2018-11-06T03:00:23.531Z,100680.67
2018-11-06T03:02:51.594Z,100693.84
2018-11-06T03:05:19.585Z,100696.69
2018-11-06T03:07:47.592Z,100697.05
2018-11-06T03:10:15.691Z,100705.46
2018-11-06T03:12:44.233Z,100693.48
2018-11-06T03:15:13.251Z,100705.89
2018-11-06T03:17:41.213Z,100696.91
2018-11-06T03:20:10.306Z,100702.75
2018-11-06T03:22:38.383Z,100703.28
2018-11-06T03:25:06.635Z,100702.63
2018-11-06T03:27:34.645Z,100702.69
2018-11-06T03:30:03.440Z,100702.75
2018-11-06T03:32:31.377Z,100709.34
2018-11-06T03:34:59.450Z,100698.83
2018-11-06T03:37:27.486Z,100696.99
2018-11-06T03:39:55.471Z,100693.54
2018-11-06T03:42:23.434Z,100679.64
2018-11-06T03:44:51.359Z,100692.96
2018-11-06T03:47:19.313Z,100690.84
2018-11-06T03:49:47.280Z,100694.87
2018-11-06T03:52:15.262Z,100696.54
2018-11-06T03:54:43.277Z,100696.09
2018-11-06T03:57:11.222Z,100698.96
2018-11-06T03:59:39.169Z,100692.81
2018-11-06T04:02:07.104Z,100697.25
2018-11-06T04:04:35.084Z,100697.84
2018-11-06T04:07:03.120Z,100698.96
2018-11-06T04:09:31.099Z,100694.84
2018-11-06T04:11:59.057Z,100693.34
2018-11-06T04:14:27.009Z,100699.95
2018-11-06T04:16:54.932Z,100691.27
2018-11-06T04:19:22.899Z,100704.81
2018-11-06T04:21:50.863Z,100707.96
2018-11-06T04:24:18.895Z,100705.83
2018-11-06T04:26:47.656Z,100716.61
2018-11-06T04:29:15.622Z,100712.48
2018-11-06T04:31:43.620Z,100721.41
2018-11-06T04:34:11.532Z,100715.21
2018-11-06T04:36:39.513Z,100711.52
2018-11-06T04:39:08.929Z,100707.17
2018-11-06T04:41:36.935Z,100717.02
2018-11-06T04:44:05.659Z,100717.47
2018-11-06T04:46:33.741Z,100709.58
2018-11-06T04:49:01.625Z,100703.47
2018-11-06T04:51:29.593Z,100698.12
2018-11-06T04:53:57.627Z,100702.06
2018-11-06T04:56:25.894Z,100706.04
2018-11-06T04:58:53.953Z,100706.65
2018-11-06T05:01:22.504Z,100719.89
2018-11-06T05:03:50.433Z,100717.28
2018-11-06T05:06:18.844Z,100716.24
2018-11-06T05:08:46.840Z,100715.27
2018-11-06T05:11:14.949Z,100709.45
2018-11-06T05:13:43.040Z,100703.36
2018-11-06T05:16:11.027Z,100703.42
2018-11-06T05:18:38.986Z,100710.09
2018-11-06T05:21:07.405Z,100710.47
2018-11-06T05:23:35.543Z,100709.22
2018-11-06T05:26:04.325Z,100716.24
2018-11-06T05:28:32.294Z,100714.67
2018-11-06T05:31:00.316Z,100717.80
2018-11-06T05:33:28.240Z,100713.09
2018-11-06T05:35:56.233Z,100710.54
2018-11-06T05:38:24.137Z,100707.32
2018-11-06T05:40:57.473Z,100709.48
2018-11-06T05:43:25.434Z,100709.75
2018-11-06T05:45:54.063Z,100708.61
2018-11-06T05:48:22.121Z,100718.09
2018-11-06T05:50:50.233Z,100715.95
2018-11-06T05:53:18.408Z,100719.66
2018-11-06T05:55:46.496Z,100719.89
2018-11-06T05:58:14.416Z,100721.10
2018-11-06T06:00:42.983Z,100725.67
2018-11-06T06:03:10.920Z,100733.19
2018-11-06T06:05:38.889Z,100736.60
2018-11-06T06:08:07.115Z,100738.98
2018-11-06T06:10:35.277Z,100733.45
2018-11-06T06:13:03.874Z,100735.65
2018-11-06T06:15:31.941Z,100737.81
2018-11-06T06:17:59.909Z,100735.09
2018-11-06T06:20:27.882Z,100738.09
2018-11-06T06:22:55.898Z,100742.88
2018-11-06T06:25:23.853Z,100743.05
2018-11-06T06:27:51.961Z,100748.05
2018-11-06T06:30:19.923Z,100745.00
2018-11-06T06:32:47.967Z,100749.79
2018-11-06T06:35:16.072Z,100745.74
2018-11-06T06:37:44.177Z,100748.83
2018-11-06T06:40:13.635Z,100747.94
2018-11-06T06:42:41.953Z,100753.00
2018-11-06T06:45:11.876Z,100748.94
2018-11-06T06:47:39.863Z,100754.26
2018-11-06T06:50:09.980Z,100747.53
2018-11-06T06:52:38.562Z,100746.81
2018-11-06T06:55:07.718Z,100755.16
2018-11-06T06:57:36.237Z,100752.69
2018-11-06T07:00:04.496Z,100755.92
2018-11-06T07:02:32.564Z,100765.80
2018-11-06T07:05:00.455Z,100763.26
2018-11-06T07:07:28.373Z,100771.60
2018-11-06T07:09:56.335Z,100770.18
2018-11-06T07:12:24.240Z,100779.05
2018-11-06T07:14:52.154Z,100781.68
2018-11-06T07:17:20.129Z,100787.61
2018-11-06T07:19:48.116Z,100783.42
2018-11-06T07:22:16.028Z,100782.12
2018-11-06T07:24:43.984Z,100784.92
2018-11-06T07:27:12.003Z,100780.27
2018-11-06T07:29:39.971Z,100775.55
2018-11-06T07:32:08.534Z,100765.48
2018-11-06T07:34:36.616Z,100764.70
2018-11-06T07:37:04.714Z,100773.10
2018-11-06T07:39:32.692Z,100778.14
2018-11-06T07:42:00.662Z,100772.59
2018-11-06T07:44:28.759Z,100777.67
2018-11-06T07:46:56.812Z,100787.92
2018-11-06T07:49:24.885Z,100797.39
2018-11-06T07:51:52.928Z,100808.01
2018-11-06T07:54:20.885Z,100810.30
2018-11-06T07:56:48.877Z,100812.48
2018-11-06T07:59:16.937Z,100813.11
2018-11-06T08:01:44.886Z,100806.53
2018-11-06T08:04:12.988Z,100810.20
2018-11-06T08:06:40.960Z,100798.36
2018-11-06T08:09:09.717Z,100802.19
2018-11-06T08:11:38.496Z,100805.16
2018-11-06T08:14:06.508Z,100799.46
2018-11-06T08:16:34.443Z,100801.41
2018-11-06T08:19:02.455Z,100809.69
2018-11-06T08:21:30.505Z,100814.30
2018-11-06T08:23:58.586Z,100815.05
2018-11-06T08:26:26.525Z,100812.58
2018-11-06T08:28:54.482Z,100821.71
2018-11-06T08:31:22.801Z,100815.84
2018-11-06T08:33:50.496Z,100815.93
2018-11-06T08:36:18.577Z,100810.31
2018-11-06T08:38:46.619Z,100814.04
2018-11-06T08:41:14.898Z,100810.34
2018-11-06T08:43:42.882Z,100813.42
2018-11-06T08:46:10.857Z,100808.27
2018-11-06T08:48:38.868Z,100808.50
2018-11-06T08:51:07.065Z,100811.66
2018-11-06T08:53:35.149Z,100805.91
2018-11-06T08:56:03.742Z,100810.02
2018-11-06T08:58:31.732Z,100802.94
2018-11-06T09:00:59.740Z,100806.58
2018-11-06T09:03:27.829Z,100799.66
2018-11-06T09:05:56.809Z,100804.31
2018-11-06T09:08:25.032Z,100804.41
2018-11-06T09:10:53.195Z,100809.76
2018-11-06T09:13:21.222Z,100804.69
2018-11-06T09:15:49.316Z,100805.07
2018-11-06T09:18:17.394Z,100800.53
2018-11-06T09:20:45.501Z,100795.20
2018-11-06T09:23:13.549Z,100799.97
2018-11-06T09:25:41.500Z,100794.00
2018-11-06T09:28:09.493Z,100798.47
2018-11-06T09:30:37.516Z,100797.05
2018-11-06T09:33:05.729Z,100785.41
2018-11-06T09:35:33.710Z,100783.09
2018-11-06T09:38:01.861Z,100782.42
2018-11-06T09:42:57.863Z,100777.19
2018-11-06T09:45:25.921Z,100773.81
2018-11-06T09:47:53.988Z,100779.67
2018-11-06T09:50:22.038Z,100784.06
2018-11-06T09:52:50.176Z,100785.51
2018-11-06T09:55:18.334Z,100784.08
2018-11-06T09:57:46.919Z,100788.03
2018-11-06T10:00:19.504Z,100782.44
2018-11-06T10:02:47.641Z,100783.16
2018-11-06T10:05:16.053Z,100781.97
2018-11-06T10:07:44.169Z,100791.38
2018-11-06T10:10:14.001Z,100792.86
2018-11-06T10:12:42.365Z,100789.46
2018-11-06T10:15:12.393Z,100795.73
2018-11-06T10:17:41.386Z,100799.95
2018-11-06T10:20:10.421Z,100793.90
2018-11-06T10:22:38.495Z,100788.28
2018-11-06T10:25:06.900Z,100792.31
2018-11-06T10:27:35.092Z,100779.30
2018-11-06T10:30:03.221Z,100782.89
2018-11-06T10:32:31.314Z,100787.34
2018-11-06T10:34:59.384Z,100787.98
2018-11-06T10:37:27.353Z,100787.65
2018-11-06T10:39:55.422Z,100788.73
2018-11-06T10:42:23.359Z,100791.02
2018-11-06T10:44:51.311Z,100780.94
2018-11-06T10:47:19.234Z,100782.35
2018-11-06T10:49:47.222Z,100785.05
2018-11-06T10:52:15.236Z,100778.44
2018-11-06T10:54:43.193Z,100778.93
2018-11-06T10:57:11.164Z,100776.42
2018-11-06T10:59:39.110Z,100771.31
2018-11-06T11:03:10.044Z,100775.20
2018-11-06T11:05:38.029Z,100769.06
2018-11-06T11:08:05.984Z,100774.48
2018-11-06T11:10:33.926Z,100767.12
2018-11-06T11:13:01.845Z,100766.65
2018-11-06T11:15:29.818Z,100761.66
2018-11-06T11:17:57.928Z,100769.31
2018-11-06T11:20:25.947Z,100763.78
2018-11-06T11:22:53.929Z,100771.41
2018-11-06T11:25:21.995Z,100767.98
2018-11-06T11:27:50.077Z,100768.43
2018-11-06T11:30:18.136Z,100770.23
2018-11-06T11:32:47.131Z,100771.70
2018-11-06T11:35:15.541Z,100764.61
2018-11-06T11:37:43.675Z,100754.23
2018-11-06T11:40:12.855Z,100752.50
2018-11-06T11:42:40.971Z,100766.77
2018-11-06T11:45:10.340Z,100765.48
2018-11-06T11:47:38.597Z,100759.40
2018-11-06T11:50:07.948Z,100755.08
2018-11-06T11:52:35.964Z,100754.73
2018-11-06T11:55:04.395Z,100757.95
2018-11-06T11:57:34.376Z,100755.80
2018-11-06T12:00:02.514Z,100755.86
2018-11-06T12:02:30.484Z,100769.18
2018-11-06T12:04:58.797Z,100766.15
2018-11-06T12:07:26.887Z,100757.31
2018-11-06T12:09:55.066Z,100754.36
2018-11-06T12:12:23.096Z,100757.09
2018-11-06T12:14:51.098Z,100758.94
2018-11-06T12:17:19.426Z,100757.95
2018-11-06T12:19:47.442Z,100753.19
2018-11-06T12:22:15.468Z,100749.29
2018-11-06T12:24:44.138Z,100751.05
2018-11-06T12:27:12.123Z,100746.73
2018-11-06T12:29:40.131Z,100743.22
2018-11-06T12:32:09.074Z,100743.09
2018-11-06T12:34:37.074Z,100743.59
2018-11-06T12:37:05.228Z,100744.05
2018-11-06T12:39:33.209Z,100742.81
2018-11-06T12:42:01.189Z,100733.54
2018-11-06T12:44:29.309Z,100739.33
2018-11-06T12:46:57.314Z,100730.96
2018-11-06T12:49:25.355Z,100729.69
2018-11-06T12:51:53.944Z,100726.56
2018-11-06T12:54:21.904Z,100730.14
2018-11-06T12:56:49.902Z,100733.22
2018-11-06T12:59:17.834Z,100735.08
2018-11-06T13:01:45.847Z,100734.55
2018-11-06T13:04:13.908Z,100741.52
2018-11-06T13:06:41.893Z,100732.34
2018-11-06T13:09:10.884Z,100737.66
2018-11-06T13:11:39.253Z,100733.20
2018-11-06T13:14:07.920Z,100735.39
2018-11-06T13:16:36.102Z,100737.70
2018-11-06T13:19:04.224Z,100731.92
2018-11-06T13:21:32.255Z,100726.13
2018-11-06T13:24:00.304Z,100723.05
2018-11-06T13:26:28.648Z,100716.00
2018-11-06T13:28:56.608Z,100719.48
2018-11-06T13:31:24.732Z,100717.28
2018-11-06T13:33:52.962Z,100717.38
2018-11-06T13:36:20.995Z,100713.45
2018-11-06T13:38:49.996Z,100713.00
2018-11-06T13:41:18.044Z,100707.69
2018-11-06T13:43:46.221Z,100708.63
2018-11-06T13:46:14.089Z,100710.34
2018-11-06T13:48:42.129Z,100710.40
2018-11-06T13:51:10.120Z,100703.77
2018-11-06T13:53:38.089Z,100702.91
2018-11-06T13:56:06.995Z,100703.76
2018-11-06T13:58:35.064Z,100703.28
2018-11-06T14:01:03.086Z,100702.81
2018-11-06T14:03:31.153Z,100705.09
2018-11-06T14:05:59.143Z,100706.00
2018-11-06T14:08:27.104Z,100713.09
2018-11-06T14:10:55.180Z,100709.54
2018-11-06T14:13:23.232Z,100710.41
2018-11-06T14:15:51.205Z,100705.05
2018-11-06T14:18:19.977Z,100711.23
2018-11-06T14:20:48.084Z,100715.24
2018-11-06T14:23:16.086Z,100713.43
2018-11-06T14:25:44.204Z,100710.70
2018-11-06T14:28:12.317Z,100699.13
2018-11-06T14:30:40.556Z,100700.44
2018-11-06T14:33:08.546Z,100699.19
2018-11-06T14:35:36.560Z,100696.95
2018-11-06T14:38:04.872Z,100696.92
2018-11-06T14:40:32.886Z,100692.84
2018-11-06T14:43:01.186Z,100695.13
2018-11-06T14:45:29.283Z,100697.27
2018-11-06T14:47:59.452Z,100694.66
2018-11-06T14:50:27.396Z,100690.70
2018-11-06T14:52:55.365Z,100695.06
2018-11-06T14:55:23.413Z,100693.23
2018-11-06T14:57:51.430Z,100697.12
2018-11-06T15:00:20.546Z,100691.67
2018-11-06T15:02:49.983Z,100688.06
2018-11-06T15:05:18.877Z,100681.75
2018-11-06T15:07:47.090Z,100692.23
2018-11-06T15:10:15.302Z,100686.89
2018-11-06T15:12:44.076Z,100696.13
2018-11-06T15:15:13.377Z,100694.29
2018-11-06T15:17:42.751Z,100700.03
2018-11-06T15:20:13.372Z,100699.78
2018-11-06T15:22:42.131Z,100697.55
2018-11-06T15:25:11.235Z,100697.98
2018-11-06T15:27:39.354Z,100697.80
2018-11-06T15:30:09.632Z,100697.83
2018-11-06T15:32:37.848Z,100699.13
2018-11-06T15:35:06.773Z,100698.75
2018-11-06T15:37:35.473Z,100704.89
2018-11-06T15:40:03.763Z,100704.75
2018-11-06T15:42:31.868Z,100699.78
2018-11-06T15:44:59.835Z,100697.98
2018-11-06T15:47:28.291Z,100694.55
2018-11-06T15:49:56.349Z,100698.59
2018-11-06T15:52:24.424Z,100689.81
2018-11-06T15:54:52.503Z,100689.70
2018-11-06T15:57:20.468Z,100694.95
2018-11-06T15:59:48.525Z,100699.31
2018-11-06T16:02:16.532Z,100700.16
2018-11-06T16:04:45.377Z,100694.42
2018-11-06T16:07:13.360Z,100696.47
2018-11-06T16:09:41.408Z,100699.99
2018-11-06T16:12:09.724Z,100703.39
2018-11-06T16:14:37.875Z,100707.70
2018-11-06T16:17:06.285Z,100711.32
2018-11-06T16:19:34.293Z,100712.61
2018-11-06T16:22:02.424Z,100720.37
2018-11-06T16:24:30.385Z,100721.11
2018-11-06T16:26:58.403Z,100719.95
2018-11-06T16:29:26.405Z,100719.07
2018-11-06T16:31:54.488Z,100724.65
2018-11-06T16:34:22.492Z,100724.41
2018-11-06T16:36:50.595Z,100724.75
2018-11-06T16:39:18.593Z,100723.88
2018-11-06T16:41:47.410Z,100723.03
2018-11-06T16:44:15.414Z,100720.64
2018-11-06T16:46:43.398Z,100721.63
2018-11-06T16:49:11.508Z,100715.75
2018-11-06T16:51:39.487Z,100722.63
2018-11-06T16:54:07.472Z,100724.55
2018-11-06T16:56:35.593Z,100719.14
2018-11-06T16:59:03.571Z,100722.98
2018-11-06T17:01:31.821Z,100725.77
2018-11-06T17:03:59.814Z,100728.41
2018-11-06T17:06:33.360Z,100726.59
2018-11-06T17:09:01.381Z,100729.13
2018-11-06T17:11:29.422Z,100733.88
2018-11-06T17:13:57.510Z,100735.98
2018-11-06T17:16:25.508Z,100740.43
2018-11-06T17:18:53.504Z,100740.23
2018-11-06T17:21:21.507Z,100742.48
2018-11-06T17:23:49.468Z,100738.30
2018-11-06T17:26:17.420Z,100736.94
2018-11-06T17:28:46.515Z,100731.32
2018-11-06T17:31:14.607Z,100731.58
2018-11-06T17:33:42.616Z,100735.70
2018-11-06T17:36:10.793Z,100731.37
2018-11-06T17:38:38.791Z,100732.73
2018-11-06T17:41:06.762Z,100731.43
2018-11-06T17:43:34.827Z,100725.98
2018-11-06T17:46:02.941Z,100724.51
2018-11-06T17:48:31.635Z,100723.37
2018-11-06T17:50:59.901Z,100715.58
2018-11-06T17:53:27.859Z,100718.27
2018-11-06T17:55:55.915Z,100715.90
2018-11-06T17:58:23.869Z,100716.44
2018-11-06T18:00:52.876Z,100713.47
2018-11-06T18:03:20.869Z,100709.02
2018-11-06T18:05:48.977Z,100699.61
2018-11-06T18:08:17.071Z,100705.55
2018-11-06T18:10:45.292Z,100707.25
2018-11-06T18:13:13.413Z,100701.16
2018-11-06T18:15:41.420Z,100689.13
2018-11-06T18:18:10.165Z,100697.35
2018-11-06T18:20:38.113Z,100697.78
2018-11-06T18:23:06.304Z,100694.91
2018-11-06T18:25:34.376Z,100690.96
2018-11-06T18:28:02.411Z,100685.05
2018-11-06T18:30:30.481Z,100689.39
2018-11-06T18:32:58.443Z,100683.19
2018-11-06T18:35:26.454Z,100685.61
2018-11-06T18:37:54.459Z,100681.65
2018-11-06T18:40:22.420Z,100675.59
2018-11-06T18:42:51.034Z,100680.73
2018-11-06T18:45:19.108Z,100677.91
2018-11-06T18:47:47.871Z,100681.39
2018-11-06T18:50:16.918Z,100680.98
2018-11-06T18:52:46.282Z,100680.84
2018-11-06T18:55:14.320Z,100674.25
2018-11-06T18:57:42.488Z,100674.28
2018-11-06T19:00:17.868Z,100674.19
2018-11-06T19:02:46.746Z,100673.58
2018-11-06T19:05:15.238Z,100671.92
2018-11-06T19:07:43.901Z,100670.67
2018-11-06T19:10:12.921Z,100664.09
2018-11-06T19:12:41.192Z,100661.95
2018-11-06T19:15:12.913Z,100661.13
2018-11-06T19:19:26.939Z,100671.95
2018-11-06T19:21:55.101Z,100672.47
2018-11-06T19:24:23.057Z,100668.82
2018-11-06T19:26:51.016Z,100664.55
2018-11-06T19:29:18.966Z,100666.68
2018-11-06T19:31:47.013Z,100671.20
2018-11-06T19:34:15.074Z,100667.18
2018-11-06T19:36:43.108Z,100673.21
2018-11-06T19:39:12.053Z,100671.19
2018-11-06T19:41:40.148Z,100679.52
2018-11-06T19:44:09.671Z,100675.89
2018-11-06T19:46:37.812Z,100671.62
2018-11-06T19:49:05.835Z,100677.39
2018-11-06T19:51:34.240Z,100685.13
2018-11-06T19:54:02.376Z,100684.80
2018-11-06T19:56:30.338Z,100688.81
2018-11-06T19:58:58.283Z,100690.40
2018-11-06T20:01:26.738Z,100693.67
2018-11-06T20:03:54.708Z,100691.70
2018-11-06T20:06:22.799Z,100690.66
2018-11-06T20:08:50.978Z,100688.14
2018-11-06T20:11:19.056Z,100687.48
2018-11-06T20:13:47.020Z,100682.36
2018-11-06T20:16:15.066Z,100685.77
2018-11-06T20:18:43.046Z,100691.02
2018-11-06T20:21:11.095Z,100695.85
2018-11-06T20:23:39.077Z,100703.77
2018-11-06T20:26:07.172Z,100708.66
2018-11-06T20:28:36.013Z,100708.71
2018-11-06T20:31:04.217Z,100715.73
2018-11-06T20:33:32.340Z,100718.49
2018-11-06T20:36:00.122Z,100715.93
2018-11-06T20:38:28.084Z,100720.70
2018-11-06T20:40:56.153Z,100716.23
2018-11-06T20:43:24.162Z,100727.61
2018-11-06T20:45:52.351Z,100718.51
2018-11-06T20:48:20.574Z,100719.72
2018-11-06T20:50:48.537Z,100727.95
2018-11-06T20:53:16.474Z,100719.57
2018-11-06T20:55:44.549Z,100728.28
2018-11-06T20:58:12.569Z,100731.57
2018-11-06T21:00:40.866Z,100733.20
2018-11-06T21:03:08.767Z,100737.53
2018-11-06T21:05:36.736Z,100735.17
2018-11-06T21:08:04.910Z,100741.76
2018-11-06T21:10:32.882Z,100747.53
2018-11-06T21:13:00.867Z,100747.16
2018-11-06T21:15:28.757Z,100754.18
2018-11-06T21:17:57.095Z,100746.16
2018-11-06T21:20:25.079Z,100751.56
2018-11-06T21:22:52.895Z,100749.38
2018-11-06T21:25:21.105Z,100749.67
2018-11-06T21:27:48.966Z,100745.25
2018-11-06T21:30:19.336Z,100747.83
2018-11-06T21:32:48.651Z,100741.25
2018-11-06T21:35:16.828Z,100740.53
2018-11-06T21:37:44.801Z,100742.27
2018-11-06T21:40:17.459Z,100733.06
2018-11-06T21:42:45.851Z,100735.67
2018-11-06T21:45:14.464Z,100735.47
2018-11-06T21:47:43.540Z,100732.61
2018-11-06T21:50:12.457Z,100730.84
2018-11-06T21:52:40.414Z,100728.92
2018-11-06T21:55:09.997Z,100728.06
2018-11-06T21:57:38.272Z,100729.89
2018-11-06T22:00:08.113Z,100731.20
2018-11-06T22:02:36.140Z,100733.75
2018-11-06T22:05:05.336Z,100719.13
2018-11-06T22:07:33.288Z,100722.73
2018-11-06T22:10:01.353Z,100717.36
2018-11-06T22:12:29.391Z,100721.03
2018-11-06T22:14:57.391Z,100712.91
2018-11-06T22:17:25.369Z,100722.82
2018-11-06T22:19:53.287Z,100716.25
2018-11-06T22:22:21.271Z,100717.41
2018-11-06T22:24:49.119Z,100719.61
2018-11-06T22:27:17.032Z,100723.38
2018-11-06T22:29:44.937Z,100725.76
2018-11-06T22:32:13.169Z,100727.44
2018-11-06T22:34:41.146Z,100725.48
2018-11-06T22:37:09.165Z,100731.08
2018-11-06T22:39:37.039Z,100720.84
2018-11-06T22:42:04.999Z,100725.66
2018-11-06T22:44:32.918Z,100723.71
2018-11-06T22:47:00.864Z,100725.69
2018-11-06T22:49:28.777Z,100727.95
2018-11-06T22:51:56.797Z,100725.23
2018-11-06T22:54:24.767Z,100715.72
2018-11-06T22:56:52.798Z,100713.05
2018-11-06T22:59:21.114Z,100710.08
2018-11-06T23:01:49.154Z,100711.20
2018-11-06T23:04:17.107Z,100715.85
2018-11-06T23:06:45.132Z,100711.63
2018-11-06T23:09:13.062Z,100704.60
2018-11-06T23:11:40.992Z,100707.69
2018-11-06T23:14:08.989Z,100704.66
2018-11-06T23:16:36.988Z,100701.97
2018-11-06T23:19:05.069Z,100689.81
2018-11-06T23:21:33.116Z,100690.91
2018-11-06T23:24:01.214Z,100694.48
2018-11-06T23:26:29.857Z,100699.01
2018-11-06T23:28:57.718Z,100695.80
2018-11-06T23:31:25.714Z,100694.48
2018-11-06T23:33:53.687Z,100690.81
2018-11-06T23:36:21.769Z,100689.95
2018-11-06T23:38:49.657Z,100691.34
2018-11-06T23:41:17.721Z,100688.80
2018-11-06T23:43:45.651Z,100687.23
2018-11-06T23:46:13.638Z,100686.78
2018-11-06T23:48:41.572Z,100690.96
2018-11-06T23:51:09.440Z,100684.69
2018-11-06T23:53:37.300Z,100683.19
2018-11-06T23:56:05.307Z,100681.27
2018-11-06T23:58:33.161Z,100664.75
